createdAt,value
2023-05-18T00:01:14.545Z,4.04
2023-05-18T00:03:42.445Z,4.25
2023-05-18T00:06:10.102Z,4.19
2023-05-18T00:08:37.887Z,3.90
2023-05-18T00:11:05.879Z,4.24
2023-05-18T00:13:32.689Z,4.06
2023-05-18T00:16:00.135Z,4.00
2023-05-18T00:18:27.899Z,4.12
2023-05-18T00:21:00.500Z,4.19
2023-05-18T00:23:30.813Z,4.24
2023-05-18T00:25:59.126Z,4.19
2023-05-18T00:28:26.225Z,4.27
2023-05-18T00:30:53.789Z,4.02
2023-05-18T00:33:20.544Z,3.73
2023-05-18T00:35:47.196Z,3.90
2023-05-18T00:38:15.396Z,3.85
2023-05-18T00:40:42.437Z,4.15
2023-05-18T00:43:08.989Z,4.20
2023-05-18T00:45:36.019Z,4.08
2023-05-18T00:48:02.603Z,4.10
2023-05-18T00:50:29.181Z,4.21
2023-05-18T00:52:56.109Z,4.38
2023-05-18T00:55:22.662Z,4.11
2023-05-18T00:57:49.172Z,4.14
2023-05-18T01:00:16.118Z,4.07
2023-05-18T01:02:45.485Z,4.17
2023-05-18T01:05:13.259Z,4.10
2023-05-18T01:07:42.561Z,4.16
2023-05-18T01:10:11.008Z,4.26
2023-05-18T01:12:57.879Z,4.17
2023-05-18T01:15:32.902Z,4.22
2023-05-18T01:18:21.784Z,4.28
2023-05-18T01:21:31.468Z,4.22
2023-05-18T01:24:21.629Z,4.22
2023-05-18T01:26:50.525Z,4.24
2023-05-18T01:29:17.913Z,4.11
2023-05-18T01:31:44.612Z,3.98
2023-05-18T01:34:11.158Z,3.77
2023-05-18T01:36:37.621Z,3.97
2023-05-18T01:39:04.295Z,3.98
2023-05-18T01:41:36.289Z,3.90
2023-05-18T01:44:09.241Z,3.85
2023-05-18T01:46:47.882Z,3.88
2023-05-18T01:49:25.353Z,3.79
2023-05-18T01:51:53.978Z,3.52
2023-05-18T01:54:22.354Z,3.47
2023-05-18T01:56:50.817Z,3.63
2023-05-18T01:59:17.799Z,3.69
2023-05-18T02:01:45.220Z,3.61
2023-05-18T02:04:12.048Z,3.64
2023-05-18T02:06:38.560Z,3.72
2023-05-18T02:09:05.518Z,3.75
2023-05-18T02:11:32.131Z,3.51
2023-05-18T02:13:58.641Z,3.62
2023-05-18T02:16:25.190Z,3.31
2023-05-18T02:18:53.107Z,3.62
2023-05-18T02:21:19.636Z,3.64
2023-05-18T02:23:46.073Z,3.78
2023-05-18T02:26:12.536Z,3.77
2023-05-18T02:28:39.925Z,3.71
2023-05-18T02:31:14.076Z,3.60
2023-05-18T02:33:40.749Z,3.82
2023-05-18T02:36:12.358Z,3.59
2023-05-18T02:38:43.949Z,3.62
2023-05-18T02:41:11.187Z,3.47
2023-05-18T02:43:37.648Z,3.37
2023-05-18T02:46:04.702Z,3.52
2023-05-18T02:48:31.308Z,3.48
2023-05-18T02:50:58.753Z,3.34
2023-05-18T02:53:26.421Z,3.32
2023-05-18T02:55:58.514Z,3.35
2023-05-18T02:58:25.651Z,3.41
2023-05-18T03:00:55.201Z,3.30
2023-05-18T03:03:23.802Z,3.26
2023-05-18T03:05:52.855Z,3.06
2023-05-18T03:08:20.686Z,3.16
2023-05-18T03:10:47.114Z,3.42
2023-05-18T03:13:13.686Z,3.38
2023-05-18T03:15:40.573Z,3.41
2023-05-18T03:18:07.068Z,3.36
2023-05-18T03:20:35.051Z,3.46
2023-05-18T03:23:01.516Z,3.46
2023-05-18T03:25:28.004Z,3.51
2023-05-18T03:27:54.491Z,3.54
2023-05-18T03:30:20.952Z,3.61
2023-05-18T03:32:48.063Z,3.70
2023-05-18T03:35:15.130Z,3.72
2023-05-18T03:37:42.114Z,3.80
2023-05-18T03:40:16.170Z,3.79
2023-05-18T03:42:43.378Z,3.87
2023-05-18T03:45:10.593Z,3.66
2023-05-18T03:47:38.128Z,3.76
2023-05-18T03:50:05.410Z,3.65
2023-05-18T03:52:34.085Z,3.71
2023-05-18T03:55:04.110Z,3.82
2023-05-18T03:57:31.727Z,4.05
2023-05-18T03:59:59.030Z,4.03
2023-05-18T04:02:26.068Z,4.10
2023-05-18T04:04:54.057Z,4.27
2023-05-18T04:07:24.215Z,4.29
2023-05-18T04:09:55.577Z,4.49
2023-05-18T04:12:22.318Z,4.50
2023-05-18T04:14:50.004Z,4.72
2023-05-18T04:17:23.222Z,4.62
2023-05-18T04:19:50.508Z,4.61
2023-05-18T04:22:17.186Z,4.41
2023-05-18T04:24:45.684Z,4.60
2023-05-18T04:27:12.315Z,4.48
2023-05-18T04:29:40.113Z,4.52
2023-05-18T04:32:07.851Z,4.89
2023-05-18T04:34:37.970Z,4.61
2023-05-18T04:37:07.719Z,4.61
2023-05-18T04:39:35.088Z,5.15
2023-05-18T04:42:04.444Z,5.11
2023-05-18T04:44:34.075Z,5.33
2023-05-18T04:47:01.046Z,5.14
2023-05-18T04:49:28.164Z,5.18
2023-05-18T04:51:56.563Z,5.35
2023-05-18T04:54:24.341Z,5.31
2023-05-18T04:56:51.921Z,5.58
2023-05-18T04:59:19.054Z,5.54
2023-05-18T05:01:46.357Z,5.90
2023-05-18T05:04:13.271Z,5.60
2023-05-18T05:06:39.801Z,5.66
2023-05-18T05:09:06.291Z,5.89
2023-05-18T05:11:32.859Z,5.92
2023-05-18T05:13:59.379Z,5.80
2023-05-18T05:16:26.046Z,6.08
2023-05-18T05:18:52.685Z,5.98
2023-05-18T05:21:19.231Z,6.10
2023-05-18T05:23:45.767Z,6.10
2023-05-18T05:26:12.240Z,6.33
2023-05-18T05:28:38.768Z,6.74
2023-05-18T05:31:05.280Z,6.26
2023-05-18T05:33:31.943Z,6.43
2023-05-18T05:35:58.397Z,6.08
2023-05-18T05:38:24.932Z,6.16
2023-05-18T05:40:51.426Z,6.51
2023-05-18T05:43:17.896Z,6.52
2023-05-18T05:45:44.488Z,6.65
2023-05-18T05:48:13.489Z,6.61
2023-05-18T05:50:40.426Z,6.80
2023-05-18T05:53:07.020Z,6.88
2023-05-18T05:55:33.641Z,6.84
2023-05-18T05:58:00.254Z,6.63
2023-05-18T06:00:28.730Z,6.78
2023-05-18T06:02:55.274Z,7.32
2023-05-18T06:05:21.828Z,7.22
2023-05-18T06:07:48.312Z,7.65
2023-05-18T06:10:14.781Z,7.78
2023-05-18T06:12:41.578Z,7.89
2023-05-18T06:15:08.739Z,7.89
2023-05-18T06:17:35.269Z,8.20
2023-05-18T06:20:01.824Z,7.76
2023-05-18T06:22:28.272Z,8.17
2023-05-18T06:24:54.705Z,8.17
2023-05-18T06:27:21.257Z,8.36
2023-05-18T06:29:47.716Z,8.13
2023-05-18T06:32:14.341Z,8.34
2023-05-18T06:34:41.012Z,8.54
2023-05-18T06:37:07.517Z,8.55
2023-05-18T06:39:33.988Z,9.07
2023-05-18T06:42:00.428Z,8.79
2023-05-18T06:44:26.884Z,8.88
2023-05-18T06:46:53.371Z,9.12
2023-05-18T06:49:19.893Z,9.00
2023-05-18T06:51:46.359Z,9.42
2023-05-18T06:54:14.041Z,9.67
2023-05-18T06:56:40.494Z,9.59
2023-05-18T06:59:06.920Z,10.05
2023-05-18T07:01:33.768Z,10.26
2023-05-18T07:04:00.397Z,10.29
2023-05-18T07:06:27.006Z,10.37
2023-05-18T07:08:53.509Z,10.40
2023-05-18T07:11:20.070Z,10.64
2023-05-18T07:13:46.552Z,10.71
2023-05-18T07:16:13.066Z,10.98
2023-05-18T07:18:39.809Z,10.76
2023-05-18T07:21:06.302Z,11.03
2023-05-18T07:23:32.992Z,11.40
2023-05-18T07:25:59.772Z,11.17
2023-05-18T07:28:26.305Z,11.27
2023-05-18T07:30:52.842Z,11.24
2023-05-18T07:33:19.382Z,11.08
2023-05-18T07:35:46.016Z,10.94
2023-05-18T07:38:12.454Z,10.98
2023-05-18T07:40:39.009Z,11.28
2023-05-18T07:43:05.447Z,10.90
2023-05-18T07:45:32.428Z,11.45
2023-05-18T07:48:00.396Z,11.42
2023-05-18T07:50:27.087Z,11.30
2023-05-18T07:52:53.574Z,11.00
2023-05-18T07:55:20.017Z,10.93
2023-05-18T07:57:46.536Z,11.14
2023-05-18T08:00:13.572Z,11.20
2023-05-18T08:02:40.485Z,10.94
2023-05-18T08:05:08.414Z,11.08
2023-05-18T08:07:34.876Z,11.03
2023-05-18T08:10:01.424Z,10.92
2023-05-18T08:12:29.819Z,11.18
2023-05-18T08:14:56.974Z,11.02
2023-05-18T08:17:23.460Z,11.38
2023-05-18T08:19:50.751Z,11.49
2023-05-18T08:22:17.207Z,11.97
2023-05-18T08:24:44.894Z,11.86
2023-05-18T08:27:11.530Z,12.23
2023-05-18T08:29:38.086Z,11.83
2023-05-18T08:32:08.147Z,12.25
2023-05-18T08:34:35.012Z,12.27
2023-05-18T08:37:01.545Z,12.24
2023-05-18T08:39:31.636Z,12.27
2023-05-18T08:42:03.659Z,12.49
2023-05-18T08:44:45.396Z,12.53
2023-05-18T08:47:14.385Z,12.74
2023-05-18T08:49:42.534Z,12.59
2023-05-18T08:52:11.304Z,12.61
2023-05-18T08:54:37.873Z,12.37
2023-05-18T08:57:11.480Z,12.41
2023-05-18T08:59:42.029Z,11.95
2023-05-18T09:02:08.695Z,11.59
2023-05-18T09:04:35.702Z,12.02
2023-05-18T09:07:04.136Z,11.76
2023-05-18T09:09:31.884Z,12.10
2023-05-18T09:11:59.253Z,11.85
2023-05-18T09:14:26.704Z,11.92
2023-05-18T09:16:53.704Z,12.10
2023-05-18T09:19:20.395Z,12.14
2023-05-18T09:21:47.250Z,12.01
2023-05-18T09:24:13.948Z,11.91
2023-05-18T09:26:40.730Z,11.98
2023-05-18T09:29:18.570Z,11.92
2023-05-18T09:31:46.567Z,11.96
2023-05-18T09:34:14.229Z,12.04
2023-05-18T09:36:42.478Z,12.28
2023-05-18T09:39:12.611Z,12.23
2023-05-18T09:41:39.964Z,12.03
2023-05-18T09:44:09.524Z,12.26
2023-05-18T09:49:05.107Z,12.41
2023-05-18T09:51:35.583Z,12.42
2023-05-18T09:54:05.089Z,12.45
2023-05-18T09:56:34.804Z,12.12
2023-05-18T09:59:08.891Z,12.33
2023-05-18T10:01:35.654Z,12.41
2023-05-18T10:04:06.225Z,12.68
2023-05-18T10:06:32.819Z,12.93
2023-05-18T10:09:02.006Z,13.23
2023-05-18T10:11:32.127Z,12.96
2023-05-18T10:13:58.710Z,12.98
2023-05-18T10:16:25.765Z,13.25
2023-05-18T10:18:54.309Z,13.50
2023-05-18T10:21:24.531Z,13.25
2023-05-18T10:23:52.339Z,13.41
2023-05-18T10:26:22.793Z,12.94
2023-05-18T10:28:51.576Z,13.12
2023-05-18T10:31:19.750Z,12.98
2023-05-18T10:33:46.406Z,12.91
2023-05-18T10:36:13.318Z,12.74
2023-05-18T10:38:43.370Z,12.84
2023-05-18T10:41:12.310Z,13.20
2023-05-18T10:43:41.429Z,13.34
2023-05-18T10:46:08.853Z,13.03
2023-05-18T10:48:39.444Z,13.32
2023-05-18T10:51:08.050Z,13.52
2023-05-18T10:53:36.351Z,13.70
2023-05-18T10:56:03.043Z,13.86
2023-05-18T10:58:31.168Z,13.82
2023-05-18T11:01:00.211Z,13.85
2023-05-18T11:03:28.430Z,13.68
2023-05-18T11:06:10.506Z,13.27
2023-05-18T11:08:51.099Z,13.52
2023-05-18T11:11:19.556Z,13.52
2023-05-18T11:13:50.603Z,13.34
2023-05-18T11:16:19.897Z,13.27
2023-05-18T11:18:51.649Z,13.01
2023-05-18T11:21:24.019Z,13.17
2023-05-18T11:24:17.799Z,13.58
2023-05-18T11:26:55.705Z,13.50
2023-05-18T11:29:35.106Z,13.31
2023-05-18T11:32:02.700Z,13.70
2023-05-18T11:34:46.265Z,13.75
2023-05-18T11:37:17.438Z,13.90
2023-05-18T11:40:00.056Z,14.08
2023-05-18T11:42:35.200Z,13.76
2023-05-18T11:45:13.004Z,14.24
2023-05-18T11:47:42.977Z,13.61
2023-05-18T11:50:12.083Z,13.67
2023-05-18T11:52:49.708Z,13.96
2023-05-18T11:55:19.181Z,13.89
2023-05-18T11:57:50.099Z,13.73
2023-05-18T12:00:17.251Z,13.79
2023-05-18T12:02:46.458Z,13.83
2023-05-18T12:05:14.369Z,13.55
2023-05-18T12:07:41.743Z,13.80
2023-05-18T12:10:10.376Z,13.84
2023-05-18T12:12:37.521Z,13.83
2023-05-18T12:15:06.219Z,14.02
2023-05-18T12:17:42.644Z,13.77
2023-05-18T12:20:14.421Z,13.91
2023-05-18T12:22:42.903Z,13.76
2023-05-18T12:25:09.862Z,13.96
2023-05-18T12:27:41.068Z,13.89
2023-05-18T12:30:12.267Z,13.90
2023-05-18T12:32:39.099Z,14.03
2023-05-18T12:35:08.872Z,14.23
2023-05-18T12:37:46.099Z,14.20
2023-05-18T12:40:15.161Z,14.32
2023-05-18T12:43:01.221Z,14.38
2023-05-18T12:45:31.897Z,14.46
2023-05-18T12:48:06.196Z,14.36
2023-05-18T12:50:33.147Z,14.40
2023-05-18T12:53:01.605Z,14.33
2023-05-18T12:55:30.734Z,14.12
2023-05-18T12:58:02.312Z,14.26
2023-05-18T13:00:36.333Z,14.50
2023-05-18T13:03:07.440Z,14.59
2023-05-18T13:05:34.245Z,14.59
2023-05-18T13:08:01.020Z,14.37
2023-05-18T13:10:31.249Z,14.51
2023-05-18T13:13:03.133Z,14.56
2023-05-18T13:15:37.232Z,14.44
2023-05-18T13:18:07.010Z,14.57
2023-05-18T13:20:50.922Z,14.43
2023-05-18T13:23:19.173Z,14.56
2023-05-18T13:25:48.709Z,14.41
2023-05-18T13:28:17.988Z,14.33
2023-05-18T13:30:45.635Z,14.20
2023-05-18T13:33:12.323Z,14.33
2023-05-18T13:35:41.841Z,14.31
2023-05-18T13:38:13.209Z,14.49
2023-05-18T13:40:41.158Z,14.32
2023-05-18T13:43:08.703Z,14.56
2023-05-18T13:45:36.294Z,14.52
2023-05-18T13:48:09.560Z,14.60
2023-05-18T13:50:36.694Z,14.80
2023-05-18T13:53:03.289Z,14.85
2023-05-18T13:55:30.010Z,14.97
2023-05-18T13:57:56.887Z,14.93
2023-05-18T14:00:23.434Z,14.85
2023-05-18T14:02:50.003Z,14.89
2023-05-18T14:05:16.601Z,14.64
2023-05-18T14:07:44.074Z,14.36
2023-05-18T14:10:12.316Z,14.30
2023-05-18T14:12:39.588Z,14.53
2023-05-18T14:15:06.635Z,14.17
2023-05-18T14:17:34.397Z,14.38
2023-05-18T14:20:01.227Z,14.61
2023-05-18T14:22:27.670Z,14.50
2023-05-18T14:24:54.258Z,14.57
2023-05-18T14:27:20.767Z,14.61
2023-05-18T14:29:47.914Z,14.75
2023-05-18T14:32:14.444Z,14.70
2023-05-18T14:34:41.085Z,14.66
2023-05-18T14:37:07.657Z,14.64
2023-05-18T14:39:34.442Z,14.46
2023-05-18T14:42:01.125Z,14.66
2023-05-18T14:44:27.572Z,14.51
2023-05-18T14:46:54.140Z,14.66
2023-05-18T14:49:20.727Z,14.65
2023-05-18T14:51:47.177Z,14.91
2023-05-18T14:54:14.119Z,14.95
2023-05-18T14:56:40.993Z,14.79
2023-05-18T14:59:07.510Z,15.01
2023-05-18T15:01:34.034Z,14.90
2023-05-18T15:04:00.683Z,14.97
2023-05-18T15:06:28.692Z,14.92
2023-05-18T15:08:55.166Z,14.89
2023-05-18T15:11:22.720Z,14.90
2023-05-18T15:13:49.812Z,14.93
2023-05-18T15:16:19.433Z,14.95
2023-05-18T15:18:46.718Z,14.91
2023-05-18T15:21:13.306Z,14.88
2023-05-18T15:23:39.802Z,14.93
2023-05-18T15:26:08.735Z,14.75
2023-05-18T15:28:35.655Z,14.64
2023-05-18T15:31:02.142Z,14.57
2023-05-18T15:33:28.660Z,14.79
2023-05-18T15:35:55.257Z,14.80
2023-05-18T15:38:21.709Z,14.78
2023-05-18T15:40:48.219Z,14.98
2023-05-18T15:43:14.670Z,15.06
2023-05-18T15:45:41.404Z,14.95
2023-05-18T15:48:08.073Z,14.97
2023-05-18T15:50:34.583Z,15.02
2023-05-18T15:53:01.050Z,14.88
2023-05-18T15:55:28.046Z,14.85
2023-05-18T15:57:54.493Z,14.95
2023-05-18T16:00:23.615Z,14.94
2023-05-18T16:02:50.225Z,15.08
2023-05-18T16:05:16.915Z,15.12
2023-05-18T16:07:43.720Z,14.62
2023-05-18T16:10:10.526Z,15.02
2023-05-18T16:12:37.028Z,15.06
2023-05-18T16:15:03.667Z,15.02
2023-05-18T16:17:30.261Z,14.86
2023-05-18T16:19:56.713Z,15.06
2023-05-18T16:22:23.167Z,15.14
2023-05-18T16:24:49.746Z,14.95
2023-05-18T16:27:16.242Z,14.99
2023-05-18T16:29:42.804Z,14.98
2023-05-18T16:32:09.310Z,14.98
2023-05-18T16:34:35.762Z,14.94
2023-05-18T16:37:02.354Z,14.90
2023-05-18T16:39:28.777Z,14.88
2023-05-18T16:41:55.408Z,14.83
2023-05-18T16:44:21.934Z,14.60
2023-05-18T16:46:48.449Z,14.48
2023-05-18T16:49:14.990Z,14.70
2023-05-18T16:51:41.621Z,14.82
2023-05-18T16:54:08.206Z,14.58
2023-05-18T16:56:35.771Z,14.80
2023-05-18T16:59:03.014Z,14.77
2023-05-18T17:01:30.803Z,14.85
2023-05-18T17:03:57.618Z,14.80
2023-05-18T17:06:25.406Z,14.72
2023-05-18T17:08:57.346Z,14.80
2023-05-18T17:11:26.136Z,14.70
2023-05-18T17:13:52.737Z,14.70
2023-05-18T17:16:21.498Z,14.73
2023-05-18T17:18:48.795Z,14.61
2023-05-18T17:21:15.910Z,14.58
2023-05-18T17:23:42.417Z,14.65
2023-05-18T17:26:08.973Z,14.63
2023-05-18T17:28:35.805Z,14.44
2023-05-18T17:31:02.390Z,14.38
2023-05-18T17:33:28.980Z,14.45
2023-05-18T17:35:55.738Z,14.33
2023-05-18T17:38:22.618Z,14.32
2023-05-18T17:40:49.243Z,14.34
2023-05-18T17:43:15.696Z,14.35
2023-05-18T17:45:42.184Z,14.42
2023-05-18T17:48:08.999Z,14.32
2023-05-18T17:50:37.614Z,14.07
2023-05-18T17:53:04.852Z,14.23
2023-05-18T17:55:31.699Z,14.35
2023-05-18T17:58:00.878Z,14.22
2023-05-18T18:00:27.412Z,14.14
2023-05-18T18:02:55.190Z,14.08
2023-05-18T18:05:22.217Z,13.89
2023-05-18T18:07:48.905Z,13.74
2023-05-18T18:10:15.495Z,13.84
2023-05-18T18:12:41.997Z,13.70
2023-05-18T18:15:09.063Z,14.00
2023-05-18T18:17:35.704Z,14.00
2023-05-18T18:20:02.501Z,14.00
2023-05-18T18:22:28.980Z,13.72
2023-05-18T18:24:55.554Z,13.78
2023-05-18T18:27:22.153Z,13.71
2023-05-18T18:29:49.302Z,13.67
2023-05-18T18:32:15.843Z,13.60
2023-05-18T18:34:42.554Z,13.27
2023-05-18T18:37:09.124Z,13.41
2023-05-18T18:39:35.743Z,12.96
2023-05-18T18:42:02.436Z,12.77
2023-05-18T18:44:28.885Z,12.62
2023-05-18T18:46:55.554Z,12.65
2023-05-18T18:49:22.164Z,12.61
2023-05-18T18:51:48.696Z,12.71
2023-05-18T18:54:15.228Z,12.44
2023-05-18T18:56:43.904Z,12.29
2023-05-18T18:59:10.514Z,12.18
2023-05-18T19:01:37.209Z,12.14
2023-05-18T19:04:04.342Z,11.89
2023-05-18T19:06:32.020Z,11.69
2023-05-18T19:08:58.511Z,11.68
2023-05-18T19:11:25.100Z,11.52
2023-05-18T19:13:51.656Z,11.28
2023-05-18T19:16:18.520Z,11.19
2023-05-18T19:18:45.350Z,11.01
2023-05-18T19:21:11.953Z,10.69
2023-05-18T19:23:38.435Z,10.74
2023-05-18T19:26:05.062Z,10.96
2023-05-18T19:28:31.646Z,11.05
2023-05-18T19:30:58.216Z,10.77
2023-05-18T19:33:24.696Z,10.88
2023-05-18T19:35:52.766Z,10.79
2023-05-18T19:38:19.472Z,10.66
2023-05-18T19:40:46.051Z,10.72
2023-05-18T19:43:12.524Z,10.38
2023-05-18T19:45:39.502Z,10.21
2023-05-18T19:48:06.220Z,10.51
2023-05-18T19:50:32.785Z,10.24
2023-05-18T19:52:59.265Z,10.46
2023-05-18T19:55:25.950Z,10.47
2023-05-18T19:57:52.376Z,10.53
2023-05-18T20:00:18.965Z,10.55
2023-05-18T20:02:45.581Z,10.57
2023-05-18T20:05:13.089Z,10.65
2023-05-18T20:07:39.697Z,10.58
2023-05-18T20:10:06.656Z,10.84
2023-05-18T20:12:33.168Z,10.79
2023-05-18T20:14:59.845Z,10.79
2023-05-18T20:17:27.077Z,10.74
2023-05-18T20:19:53.658Z,10.79
2023-05-18T20:22:20.334Z,10.79
2023-05-18T20:24:46.996Z,10.72
2023-05-18T20:27:14.529Z,10.23
2023-05-18T20:29:41.454Z,10.34
2023-05-18T20:32:08.003Z,10.47
2023-05-18T20:34:34.907Z,10.57
2023-05-18T20:37:01.724Z,10.39
2023-05-18T20:39:28.938Z,10.64
2023-05-18T20:41:57.624Z,10.56
2023-05-18T20:44:27.786Z,10.61
2023-05-18T20:46:54.318Z,10.49
2023-05-18T20:49:26.881Z,10.50
2023-05-18T20:51:53.403Z,10.74
2023-05-18T20:54:21.391Z,10.46
2023-05-18T20:56:48.526Z,10.33
2023-05-18T20:59:16.146Z,10.60
2023-05-18T21:01:42.926Z,10.51
2023-05-18T21:04:12.569Z,10.67
2023-05-18T21:06:40.835Z,10.64
2023-05-18T21:09:08.051Z,10.50
2023-05-18T21:11:34.933Z,10.38
2023-05-18T21:14:01.514Z,10.38
2023-05-18T21:16:28.031Z,10.30
2023-05-18T21:18:54.565Z,10.37
2023-05-18T21:21:21.941Z,10.37
2023-05-18T21:23:48.953Z,10.00
2023-05-18T21:26:15.572Z,10.01
2023-05-18T21:28:42.236Z,10.18
2023-05-18T21:31:08.696Z,9.98
2023-05-18T21:33:35.261Z,10.13
2023-05-18T21:36:01.756Z,10.13
2023-05-18T21:38:28.487Z,10.04
2023-05-18T21:40:56.384Z,10.14
2023-05-18T21:43:23.754Z,9.88
2023-05-18T21:45:50.520Z,10.06
2023-05-18T21:48:17.042Z,10.03
2023-05-18T21:50:43.543Z,10.16
2023-05-18T21:53:10.040Z,10.09
2023-05-18T21:55:36.658Z,10.06
2023-05-18T21:58:03.172Z,9.90
2023-05-18T22:00:29.890Z,9.84
2023-05-18T22:02:56.624Z,9.46
2023-05-18T22:05:23.134Z,9.46
2023-05-18T22:07:49.799Z,9.77
2023-05-18T22:10:17.924Z,9.78
2023-05-18T22:12:44.690Z,9.55
2023-05-18T22:15:11.525Z,9.59
2023-05-18T22:17:39.156Z,9.63
2023-05-18T22:20:11.072Z,9.77
2023-05-18T22:22:38.001Z,9.71
2023-05-18T22:25:04.708Z,9.70
2023-05-18T22:27:31.474Z,9.54
2023-05-18T22:29:57.944Z,9.31
2023-05-18T22:32:24.790Z,9.36
2023-05-18T22:34:51.871Z,9.57
2023-05-18T22:37:18.315Z,9.53
2023-05-18T22:39:44.750Z,9.57
2023-05-18T22:42:11.253Z,9.54
2023-05-18T22:44:37.699Z,9.59
2023-05-18T22:47:04.303Z,9.22
2023-05-18T22:49:31.048Z,9.59
2023-05-18T22:51:57.505Z,9.47
2023-05-18T22:54:23.953Z,9.55
2023-05-18T22:56:50.457Z,9.56
2023-05-18T22:59:17.033Z,9.51
2023-05-18T23:01:43.515Z,9.32
2023-05-18T23:04:10.069Z,9.27
2023-05-18T23:06:36.561Z,9.42
2023-05-18T23:09:03.103Z,9.41
2023-05-18T23:11:30.924Z,9.01
2023-05-18T23:14:02.478Z,9.13
2023-05-18T23:16:29.757Z,9.27
2023-05-18T23:19:01.626Z,9.14
2023-05-18T23:21:28.428Z,9.14
2023-05-18T23:23:55.591Z,8.89
2023-05-18T23:26:22.763Z,8.92
2023-05-18T23:28:49.615Z,8.63
2023-05-18T23:31:16.370Z,8.38
2023-05-18T23:33:43.210Z,8.48
2023-05-18T23:36:11.769Z,8.19
2023-05-18T23:38:40.950Z,8.33
2023-05-18T23:41:08.400Z,8.25
2023-05-18T23:43:35.355Z,8.38
2023-05-18T23:46:02.209Z,8.50
2023-05-18T23:48:32.214Z,8.42
2023-05-18T23:51:01.584Z,8.44
2023-05-18T23:53:32.692Z,8.08
2023-05-18T23:56:00.125Z,8.22
2023-05-18T23:58:31.655Z,8.34
